METAR Data
IDs: Format: Raw Decoded Include TAF

Data at: 1231 UTC 23 Sep 2018

KHBR 231153Z AUTO 01007KT 10SM OVC014 17/16 A3003 RMK AO2 SLP158 T01670156 10167 20144 51003
KHBR 231150Z AUTO 01006KT 10SM OVC014 17/16 A3003 RMK AO2
KHBR 231053Z AUTO 01006KT 10SM OVC015 16/15 A3003 RMK AO2 SLP155 T01610150
KHBR 231008Z AUTO 36007KT 10SM BKN016 15/14 A3003 RMK AO2 T01500139
KHBR 230953Z AUTO 36006KT 10SM FEW016 14/14 A3002 RMK AO2 SLP156 T01440139
KHBR 230853Z AUTO 01005KT 10SM CLR 14/13 A3003 RMK AO2 SLP157 T01440133 56009
KHBR 230753Z AUTO 36005KT 10SM CLR 15/14 A3003 RMK AO2 SLP159 T01500139
KHBR 230653Z AUTO 02006KT 10SM CLR 15/14 A3004 RMK AO2 SLP162 T01500139
KHBR 230553Z AUTO 03005KT 10SM CLR 16/14 A3006 RMK AO2 SLP167 T01560139 10228 20156 402500139 56007
KHBR 230453Z AUTO 05006KT 10SM CLR 16/13 A3006 RMK AO2 SLP169 T01610133
KHBR 230353Z AUTO 02007KT 10SM CLR 16/13 A3007 RMK AO2 SLP172 T01610133
KHBR 230253Z AUTO 01007KT 10SM CLR 17/13 A3008 RMK AO2 SLP178 T01670133 52009
KHBR 230153Z AUTO 02006KT 10SM CLR 17/14 A3007 RMK AO2 SLP174 T01720139
KHBR 230053Z AUTO 05006KT 10SM CLR 19/14 A3006 RMK AO2 SLP172 T01940139
KHBR 222353Z AUTO 05011KT 10SM CLR 23/13 A3005 RMK AO2 SLP165 T02280128 10250 20217 55005
KHBR 222253Z AUTO 04013KT 10SM CLR 24/13 A3005 RMK AO2 SLP165 T02440128
KHBR 222153Z AUTO 05015G22KT 10SM CLR 24/13 A3005 RMK AO2 SLP166 T02440133
KHBR 222053Z AUTO 03016KT 10SM CLR 24/14 A3007 RMK AO2 SLP170 T02440144 58021
KHBR 221953Z AUTO 03016G24KT 10SM CLR 24/15 A3009 RMK AO2 SLP179 T02390150
KHBR 221853Z AUTO 10SM CLR 23/15 A3011 RMK AO2 SLP186 T02330150
KHBR 221753Z AUTO 03017G22KT 10SM CLR 22/14 A3013 RMK AO2 SLP193 T02220144 10222 20139 58009
KHBR 221653Z AUTO 04016G22KT 10SM CLR 21/14 A3016 RMK AO2 SLP202 T02060139
KHBR 221553Z AUTO 02017KT 10SM CLR 19/13 A3016 RMK AO2 SLP204 T01890133
KHBR 221519Z AUTO 02017KT 10SM OVC030 17/13 A3016 RMK AO2 T01720128
KHBR 221453Z AUTO 03017KT 10SM OVC028 16/12 A3016 RMK AO2 SLP206 T01560117 53006
KHBR 221353Z AUTO 02021G26KT 10SM OVC028 14/11 A3015 RMK AO2 PK WND 02027/1314 SLP203 T01440111
KHBR 221300Z AUTO 03021KT 10SM BKN029 OVC035 14/11 A3015 RMK AO2 T01390111
KHBR 221253Z AUTO 02020KT 10SM SCT026 OVC033 14/11 A3015 RMK AO2 PK WND 02026/1240 SLP201 T01390111
KHBR 221153Z AUTO 02016KT 10SM OVC024 14/12 A3014 RMK AO2 PK WND 02027/1134 SLP200 70113 T01440117 10150 20144 56001
KHBR 221053Z AUTO 02017G25KT 10SM OVC024 14/12 A3015 RMK AO2 PK WND 01028/1042 SLP201 T01440117
KHBR 220953Z AUTO 03017G22KT 10SM OVC027 14/12 A3014 RMK AO2 SLP199 T01440117
KHBR 220853Z AUTO 02015G23KT 10SM OVC026 15/12 A3015 RMK AO2 SLP200 T01500117 58009
KHBR 220753Z AUTO 02012KT 10SM OVC025 15/12 A3017 RMK AO2 SLP206 T01500117
KHBR 220653Z AUTO 02011KT 10SM OVC026 15/12 A3017 RMK AO2 SLP207 T01500117
KHBR 220617Z AUTO 02015KT 10SM BKN025 15/12 A3018 RMK AO2 T01500117
KHBR 220553Z AUTO 02017KT 10SM FEW024 15/12 A3018 RMK AO2 SLP210 T01500117 10167 20150 402220150 50006
KHBR 220540Z AUTO 02015KT 10SM SCT028 15/12 A3018 RMK AO2 T01500117
KHBR 220453Z AUTO 03014KT 10SM OVC027 16/12 A3018 RMK AO2 SLP211 T01560117
KHBR 220353Z AUTO 03016G24KT 10SM OVC027 16/12 A3018 RMK AO2 SLP208 T01560122
KHBR 220332Z AUTO 03017G23KT 10SM BKN028 BKN120 16/12 A3017 RMK AO2 T01560122
KHBR 220253Z AUTO 02017G23KT 10SM BKN120 16/12 A3016 RMK AO2 PK WND 02026/0241 SLP203 T01560122 53014
KHBR 220153Z AUTO 03017G25KT 10SM FEW120 16/13 A3014 RMK AO2 PK WND 03027/0114 SLP198 T01610128
KHBR 220053Z AUTO 04017G25KT 10SM OVC100 17/13 A3012 RMK AO2 PK WND 05033/0001 SLP187 T01670133